createdAt,value
2023-03-08T00:00:06.717Z,99.78
2023-03-08T00:02:37.510Z,100.00
2023-03-08T00:05:04.329Z,99.99
2023-03-08T00:07:30.847Z,100.00
2023-03-08T00:09:57.397Z,99.94
2023-03-08T00:16:12.302Z,100.00
2023-03-08T00:18:38.851Z,100.00
2023-03-08T00:21:06.751Z,100.00
2023-03-08T00:23:33.615Z,100.00
2023-03-08T00:26:00.217Z,100.00
2023-03-08T00:28:27.085Z,100.00
2023-03-08T00:30:57.844Z,100.00
2023-03-08T00:33:24.471Z,100.00
2023-03-08T00:35:54.850Z,100.00
2023-03-08T00:38:21.373Z,99.79
2023-03-08T00:40:47.779Z,99.76
2023-03-08T00:43:14.274Z,99.27
2023-03-08T00:45:40.710Z,99.53
2023-03-08T00:48:07.119Z,99.24
2023-03-08T00:50:33.641Z,99.62
2023-03-08T00:53:00.100Z,99.84
2023-03-08T00:55:26.606Z,99.84
2023-03-08T00:57:53.156Z,99.27
2023-03-08T01:00:19.775Z,99.10
2023-03-08T01:02:46.284Z,99.84
2023-03-08T01:05:13.640Z,99.51
2023-03-08T01:07:40.124Z,99.13
2023-03-08T01:10:07.382Z,99.44
2023-03-08T01:12:34.265Z,98.94
2023-03-08T01:15:00.763Z,98.08
2023-03-08T01:17:27.321Z,98.48
2023-03-08T01:19:53.820Z,99.07
2023-03-08T01:22:20.307Z,98.24
2023-03-08T01:24:47.417Z,98.32
2023-03-08T01:27:14.580Z,98.18
2023-03-08T01:29:41.934Z,95.59
2023-03-08T01:32:09.826Z,96.53
2023-03-08T01:34:39.424Z,97.13
2023-03-08T01:37:05.909Z,98.54
2023-03-08T01:39:32.472Z,99.13
2023-03-08T01:41:59.039Z,98.93
2023-03-08T01:44:25.541Z,98.83
2023-03-08T01:46:53.253Z,99.44
2023-03-08T01:49:19.767Z,98.59
2023-03-08T01:51:51.983Z,98.54
2023-03-08T01:54:38.647Z,98.80
2023-03-08T01:57:17.445Z,96.48
2023-03-08T01:59:44.770Z,96.74
2023-03-08T02:02:11.356Z,97.79
2023-03-08T02:04:39.342Z,98.26
2023-03-08T02:07:09.567Z,98.47
2023-03-08T02:09:36.608Z,99.23
2023-03-08T02:12:06.166Z,98.99
2023-03-08T02:14:32.862Z,98.91
2023-03-08T02:16:59.329Z,98.72
2023-03-08T02:19:44.361Z,98.24
2023-03-08T02:22:11.403Z,98.28
2023-03-08T02:24:38.781Z,98.07
2023-03-08T02:27:14.728Z,97.62
2023-03-08T02:29:41.201Z,96.68
2023-03-08T02:32:08.068Z,97.20
2023-03-08T02:34:36.415Z,97.08
2023-03-08T02:37:03.232Z,97.47
2023-03-08T02:39:29.773Z,97.95
2023-03-08T02:41:56.253Z,98.51
2023-03-08T02:44:22.764Z,97.93
2023-03-08T02:46:49.343Z,97.38
2023-03-08T02:49:16.245Z,97.83
2023-03-08T02:51:42.767Z,97.77
2023-03-08T02:54:09.372Z,98.50
2023-03-08T02:56:37.293Z,98.89
2023-03-08T02:59:04.860Z,98.94
2023-03-08T03:01:31.379Z,99.41
2023-03-08T03:03:59.350Z,98.90
2023-03-08T03:06:25.871Z,98.49
2023-03-08T03:08:55.508Z,97.94
2023-03-08T03:11:22.953Z,97.45
2023-03-08T03:13:55.521Z,96.91
2023-03-08T03:16:22.623Z,97.36
2023-03-08T03:18:49.053Z,98.91
2023-03-08T03:21:15.553Z,98.81
2023-03-08T03:23:42.218Z,98.39
2023-03-08T03:26:13.619Z,98.05
2023-03-08T03:28:40.735Z,98.82
2023-03-08T03:31:08.486Z,99.27
2023-03-08T03:33:35.189Z,98.76
2023-03-08T03:36:02.415Z,98.76
2023-03-08T03:38:30.062Z,98.03
2023-03-08T03:41:00.443Z,98.28
2023-03-08T03:43:27.288Z,98.82
2023-03-08T03:45:58.141Z,98.69
2023-03-08T03:48:25.560Z,97.79
2023-03-08T03:50:56.746Z,97.80
2023-03-08T03:53:23.789Z,97.76
2023-03-08T03:55:52.667Z,95.84
2023-03-08T03:58:19.242Z,96.06
2023-03-08T04:00:46.130Z,96.87
2023-03-08T04:03:22.119Z,97.20
2023-03-08T04:05:48.808Z,97.08
2023-03-08T04:08:15.617Z,97.18
2023-03-08T04:10:42.876Z,97.35
2023-03-08T04:13:12.616Z,97.59
2023-03-08T04:15:40.427Z,98.39
2023-03-08T04:18:10.904Z,97.91
2023-03-08T04:20:41.283Z,97.80
2023-03-08T04:23:08.130Z,97.54
2023-03-08T04:25:38.964Z,98.45
2023-03-08T04:28:07.048Z,98.50
2023-03-08T04:30:33.664Z,97.67
2023-03-08T04:33:01.777Z,97.06
2023-03-08T04:35:36.166Z,97.14
2023-03-08T04:38:03.650Z,96.69
2023-03-08T04:40:30.216Z,97.91
2023-03-08T04:42:59.827Z,96.94
2023-03-08T04:45:32.528Z,97.56
2023-03-08T04:48:02.914Z,97.48
2023-03-08T04:50:31.222Z,97.63
2023-03-08T04:52:58.117Z,97.54
2023-03-08T04:55:25.110Z,97.68
2023-03-08T04:57:51.993Z,97.60
2023-03-08T05:00:18.650Z,97.87
2023-03-08T05:02:45.971Z,98.35
2023-03-08T05:05:16.576Z,98.31
2023-03-08T05:07:44.176Z,98.65
2023-03-08T05:10:11.767Z,98.73
2023-03-08T05:12:40.620Z,98.93
2023-03-08T05:15:07.751Z,99.48
2023-03-08T05:17:34.624Z,98.97
2023-03-08T05:20:01.234Z,99.06
2023-03-08T05:22:38.873Z,99.29
2023-03-08T05:25:12.041Z,99.73
2023-03-08T05:27:39.047Z,99.49
2023-03-08T05:30:07.929Z,99.22
2023-03-08T05:32:35.345Z,99.54
2023-03-08T05:35:01.906Z,99.61
2023-03-08T05:37:34.085Z,99.60
2023-03-08T05:40:05.927Z,99.73
2023-03-08T05:42:34.753Z,100.00
2023-03-08T05:45:01.927Z,100.00
2023-03-08T05:47:33.350Z,100.00
2023-03-08T05:50:00.003Z,100.00
2023-03-08T05:52:29.080Z,100.00
2023-03-08T05:54:57.860Z,100.00
2023-03-08T05:57:24.396Z,100.00
2023-03-08T05:59:51.012Z,100.00
2023-03-08T06:02:20.797Z,100.00
2023-03-08T06:04:50.002Z,100.00
2023-03-08T06:07:19.781Z,100.00
2023-03-08T06:09:51.845Z,100.00
2023-03-08T06:12:18.525Z,100.00
2023-03-08T06:14:48.880Z,100.00
2023-03-08T06:17:20.025Z,100.00
2023-03-08T06:19:49.190Z,100.00
2023-03-08T06:22:17.158Z,100.00
2023-03-08T06:24:44.920Z,100.00
2023-03-08T06:27:11.998Z,100.00
2023-03-08T06:29:41.054Z,100.00
2023-03-08T06:32:08.652Z,100.00
2023-03-08T06:34:36.013Z,99.64
2023-03-08T06:37:02.731Z,100.00
2023-03-08T06:39:31.576Z,99.93
2023-03-08T06:42:02.621Z,96.23
2023-03-08T06:44:29.942Z,96.47
2023-03-08T06:46:56.641Z,94.78
2023-03-08T06:49:24.365Z,92.37
2023-03-08T06:51:50.969Z,90.13
2023-03-08T06:54:17.729Z,89.92
2023-03-08T06:56:46.440Z,86.68
2023-03-08T06:59:13.826Z,86.59
2023-03-08T07:01:40.874Z,86.83
2023-03-08T07:04:07.996Z,85.85
2023-03-08T07:06:34.576Z,86.82
2023-03-08T07:09:01.002Z,84.01
2023-03-08T07:11:29.515Z,81.17
2023-03-08T07:13:56.843Z,79.41
2023-03-08T07:16:23.717Z,78.97
2023-03-08T07:18:50.226Z,80.14
2023-03-08T07:21:16.842Z,78.59
2023-03-08T07:23:43.361Z,79.69
2023-03-08T07:26:10.768Z,80.93
2023-03-08T07:28:37.217Z,83.21
2023-03-08T07:31:03.781Z,82.39
2023-03-08T07:33:30.310Z,85.09
2023-03-08T07:35:58.788Z,83.24
2023-03-08T07:38:25.250Z,85.41
2023-03-08T07:40:56.011Z,85.11
2023-03-08T07:43:22.987Z,82.09
2023-03-08T07:45:58.896Z,79.57
2023-03-08T07:48:25.374Z,75.83
2023-03-08T07:50:51.938Z,72.81
2023-03-08T07:53:18.372Z,73.48
2023-03-08T07:55:44.901Z,72.18
2023-03-08T07:58:11.457Z,70.60
2023-03-08T08:00:37.928Z,70.20
2023-03-08T08:03:04.495Z,70.99
2023-03-08T08:05:31.038Z,68.71
2023-03-08T08:07:57.486Z,67.05
2023-03-08T08:10:24.065Z,66.21
2023-03-08T08:12:50.549Z,65.91
2023-03-08T08:15:17.446Z,65.56
2023-03-08T08:17:43.852Z,64.48
2023-03-08T08:20:10.886Z,64.70
2023-03-08T08:22:37.738Z,64.54
2023-03-08T08:25:05.454Z,64.64
2023-03-08T08:27:31.879Z,66.80
2023-03-08T08:29:59.390Z,64.91
2023-03-08T08:32:26.224Z,64.24
2023-03-08T08:34:52.807Z,65.37
2023-03-08T08:37:19.966Z,64.32
2023-03-08T08:39:46.433Z,65.60
2023-03-08T08:42:12.851Z,67.43
2023-03-08T08:44:39.332Z,68.18
2023-03-08T08:47:05.873Z,65.38
2023-03-08T08:49:32.317Z,65.55
2023-03-08T08:51:58.765Z,65.82
2023-03-08T08:54:25.247Z,64.26
2023-03-08T08:56:51.775Z,67.37
2023-03-08T08:59:18.283Z,66.34
2023-03-08T09:01:44.894Z,65.86
2023-03-08T09:04:13.685Z,66.24
2023-03-08T09:06:40.469Z,66.33
2023-03-08T09:09:06.936Z,63.74
2023-03-08T09:11:34.678Z,64.50
2023-03-08T09:14:02.549Z,61.50
2023-03-08T09:16:30.844Z,62.94
2023-03-08T09:18:58.155Z,60.52
2023-03-08T09:21:25.372Z,60.15
2023-03-08T09:23:52.064Z,61.58
2023-03-08T09:26:18.622Z,60.37
2023-03-08T09:28:45.135Z,60.12
2023-03-08T09:31:14.988Z,60.80
2023-03-08T09:33:43.020Z,58.92
2023-03-08T09:36:09.647Z,59.75
2023-03-08T09:38:36.745Z,58.85
2023-03-08T09:41:15.356Z,59.27
2023-03-08T09:44:04.360Z,57.87
2023-03-08T09:46:34.160Z,59.74
2023-03-08T09:49:02.757Z,58.93
2023-03-08T09:51:33.676Z,57.29
2023-03-08T09:54:03.104Z,54.54
2023-03-08T09:56:37.620Z,56.06
2023-03-08T09:59:22.592Z,55.39
2023-03-08T10:02:07.871Z,54.00
2023-03-08T10:04:43.731Z,54.00
2023-03-08T10:07:25.378Z,53.25
2023-03-08T10:10:10.312Z,52.99
2023-03-08T10:12:48.832Z,53.34
2023-03-08T10:15:17.853Z,53.30
2023-03-08T10:17:44.398Z,52.39
2023-03-08T10:20:24.999Z,54.13
2023-03-08T10:22:56.120Z,52.08
2023-03-08T10:25:28.792Z,53.33
2023-03-08T10:27:56.094Z,53.10
2023-03-08T10:30:32.651Z,52.16
2023-03-08T10:33:00.673Z,51.54
2023-03-08T10:35:31.673Z,50.14
2023-03-08T10:37:58.170Z,50.17
2023-03-08T10:40:24.695Z,50.80
2023-03-08T10:43:03.607Z,50.69
2023-03-08T10:45:30.454Z,49.73
2023-03-08T10:48:01.265Z,50.27
2023-03-08T10:50:37.450Z,50.34
2023-03-08T10:53:15.879Z,50.99
2023-03-08T10:55:47.090Z,50.93
2023-03-08T10:58:43.051Z,50.87
2023-03-08T11:01:29.864Z,51.12
2023-03-08T11:03:59.658Z,50.84
2023-03-08T11:06:26.269Z,50.30
2023-03-08T11:08:54.310Z,50.03
2023-03-08T11:11:21.110Z,49.68
2023-03-08T11:13:48.868Z,49.54
2023-03-08T11:16:27.197Z,48.70
2023-03-08T11:18:59.840Z,49.08
2023-03-08T11:21:38.487Z,48.98
2023-03-08T11:24:18.439Z,48.18
2023-03-08T11:26:51.164Z,48.86
2023-03-08T11:29:40.784Z,49.65
2023-03-08T11:32:10.483Z,48.61
2023-03-08T11:34:45.799Z,46.17
2023-03-08T11:37:21.762Z,47.30
2023-03-08T11:40:14.233Z,45.55
2023-03-08T11:42:49.602Z,46.16
2023-03-08T11:45:36.389Z,43.18
2023-03-08T11:48:12.530Z,42.74
2023-03-08T11:50:47.574Z,42.12
2023-03-08T11:53:14.007Z,42.05
2023-03-08T11:55:59.231Z,41.28
2023-03-08T11:58:32.384Z,39.77
2023-03-08T12:01:05.031Z,39.92
2023-03-08T12:03:34.996Z,40.03
2023-03-08T12:06:07.372Z,38.63
2023-03-08T12:08:39.955Z,38.72
2023-03-08T12:11:29.012Z,38.70
2023-03-08T12:14:00.246Z,40.38
2023-03-08T12:16:26.835Z,39.46
2023-03-08T12:19:06.826Z,40.17
2023-03-08T12:21:38.444Z,38.19
2023-03-08T12:24:15.535Z,39.30
2023-03-08T12:26:45.349Z,40.03
2023-03-08T12:29:19.666Z,39.23
2023-03-08T12:31:48.931Z,40.59
2023-03-08T12:34:34.325Z,39.42
2023-03-08T12:37:00.828Z,37.14
2023-03-08T12:39:27.560Z,38.80
2023-03-08T12:42:09.386Z,41.85
2023-03-08T12:44:36.914Z,41.56
2023-03-08T12:47:18.409Z,42.15
2023-03-08T12:49:52.712Z,42.85
2023-03-08T12:52:19.267Z,40.89
2023-03-08T12:55:08.947Z,39.94
2023-03-08T12:57:47.276Z,38.26
2023-03-08T13:00:19.868Z,39.19
2023-03-08T13:02:46.619Z,39.72
2023-03-08T13:05:21.099Z,41.75
2023-03-08T13:08:07.874Z,39.34
2023-03-08T13:10:41.559Z,41.09
2023-03-08T13:13:15.642Z,38.04
2023-03-08T13:15:47.196Z,37.34
2023-03-08T13:18:20.362Z,37.76
2023-03-08T13:20:54.826Z,37.87
2023-03-08T13:23:27.425Z,37.44
2023-03-08T13:25:53.910Z,38.04
2023-03-08T13:28:28.747Z,38.39
2023-03-08T13:31:01.163Z,37.89
2023-03-08T13:33:29.204Z,38.01
2023-03-08T13:36:03.545Z,37.79
2023-03-08T13:38:31.579Z,37.91
2023-03-08T13:40:58.498Z,39.08
2023-03-08T13:43:26.196Z,38.14
2023-03-08T13:45:54.362Z,37.99
2023-03-08T13:48:21.870Z,39.25
2023-03-08T13:50:52.317Z,39.36
2023-03-08T13:53:22.805Z,39.67
2023-03-08T13:55:52.188Z,38.07
2023-03-08T13:58:21.526Z,39.23
2023-03-08T14:00:57.253Z,40.61
2023-03-08T14:03:23.883Z,39.82
2023-03-08T14:05:50.350Z,39.62
2023-03-08T14:08:26.858Z,38.71
2023-03-08T14:10:53.357Z,38.46
2023-03-08T14:13:24.361Z,39.79
2023-03-08T14:15:53.161Z,39.74
2023-03-08T14:18:24.237Z,40.54
2023-03-08T14:21:01.349Z,40.57
2023-03-08T14:23:28.101Z,39.93
2023-03-08T14:25:57.685Z,40.38
2023-03-08T14:28:34.315Z,40.00
2023-03-08T14:31:00.901Z,38.83
2023-03-08T14:33:41.809Z,39.17
2023-03-08T14:36:09.832Z,37.68
2023-03-08T14:38:36.508Z,39.29
2023-03-08T14:41:06.222Z,38.92
2023-03-08T14:43:33.080Z,39.38
2023-03-08T14:46:01.868Z,39.28
2023-03-08T14:48:35.393Z,37.78
2023-03-08T14:51:06.407Z,38.11
2023-03-08T14:53:40.322Z,37.52
2023-03-08T14:56:11.248Z,36.99
2023-03-08T14:58:39.230Z,37.44
2023-03-08T15:01:05.732Z,37.05
2023-03-08T15:03:32.735Z,37.40
2023-03-08T15:06:11.087Z,38.60
2023-03-08T15:08:37.523Z,39.09
2023-03-08T15:11:04.035Z,40.44
2023-03-08T15:13:30.471Z,39.67
2023-03-08T15:15:56.935Z,39.50
2023-03-08T15:18:23.428Z,38.79
2023-03-08T15:20:50.405Z,39.32
2023-03-08T15:23:22.932Z,39.28
2023-03-08T15:25:49.954Z,38.86
2023-03-08T15:28:17.289Z,39.91
2023-03-08T15:30:43.890Z,39.57
2023-03-08T15:33:10.553Z,39.09
2023-03-08T15:35:37.928Z,40.54
2023-03-08T15:38:04.530Z,39.97
2023-03-08T15:40:32.006Z,40.42
2023-03-08T15:42:58.597Z,40.43
2023-03-08T15:45:25.093Z,41.38
2023-03-08T15:47:58.573Z,41.43
2023-03-08T15:50:25.693Z,40.25
2023-03-08T15:52:52.513Z,40.53
2023-03-08T15:55:18.952Z,40.57
2023-03-08T15:57:45.377Z,40.89
2023-03-08T16:00:13.209Z,41.48
2023-03-08T16:02:40.153Z,41.92
2023-03-08T16:05:08.059Z,42.48
2023-03-08T16:07:34.714Z,43.11
2023-03-08T16:10:01.596Z,43.26
2023-03-08T16:12:28.075Z,41.76
2023-03-08T16:14:58.170Z,42.36
2023-03-08T16:17:27.889Z,42.44
2023-03-08T16:19:54.325Z,42.40
2023-03-08T16:22:21.005Z,42.27
2023-03-08T16:24:47.652Z,42.60
2023-03-08T16:27:14.243Z,43.15
2023-03-08T16:29:40.722Z,43.09
2023-03-08T16:32:07.459Z,43.16
2023-03-08T16:34:34.342Z,45.13
2023-03-08T16:37:00.780Z,45.16
2023-03-08T16:39:27.395Z,46.37
2023-03-08T16:41:53.837Z,45.78
2023-03-08T16:44:24.759Z,46.50
2023-03-08T16:46:51.256Z,45.32
2023-03-08T16:49:18.689Z,44.47
2023-03-08T16:51:45.284Z,44.30
2023-03-08T16:54:12.553Z,44.31
2023-03-08T16:56:40.615Z,44.20
2023-03-08T16:59:07.132Z,44.06
2023-03-08T17:01:33.733Z,44.64
2023-03-08T17:04:01.187Z,44.58
2023-03-08T17:06:29.319Z,45.97
2023-03-08T17:08:56.569Z,46.49
2023-03-08T17:11:24.439Z,45.34
2023-03-08T17:13:53.338Z,46.61
2023-03-08T17:16:20.742Z,46.07
2023-03-08T17:18:48.362Z,46.11
2023-03-08T17:21:15.082Z,45.73
2023-03-08T17:23:41.626Z,45.56
2023-03-08T17:26:09.296Z,45.97
2023-03-08T17:28:35.984Z,46.75
2023-03-08T17:31:02.496Z,45.89
2023-03-08T17:33:29.047Z,45.67
2023-03-08T17:35:56.508Z,47.13
2023-03-08T17:38:23.117Z,47.62
2023-03-08T17:40:49.581Z,49.16
2023-03-08T17:43:16.478Z,49.14
2023-03-08T17:45:42.923Z,49.53
2023-03-08T17:48:11.193Z,50.34
2023-03-08T17:50:37.614Z,51.38
2023-03-08T17:53:04.180Z,51.44
2023-03-08T17:55:30.687Z,52.27
2023-03-08T17:57:57.161Z,52.72
2023-03-08T18:00:24.487Z,52.44
2023-03-08T18:02:50.997Z,53.70
2023-03-08T18:05:17.522Z,53.20
2023-03-08T18:07:45.335Z,54.66
2023-03-08T18:10:11.990Z,54.97
2023-03-08T18:12:38.438Z,55.03
2023-03-08T18:15:05.183Z,55.33
2023-03-08T18:17:34.046Z,54.15
2023-03-08T18:20:01.411Z,53.32
2023-03-08T18:22:27.927Z,54.29
2023-03-08T18:24:54.376Z,54.91
2023-03-08T18:27:20.804Z,55.73
2023-03-08T18:29:47.262Z,56.14
2023-03-08T18:32:13.729Z,54.52
2023-03-08T18:34:40.362Z,55.41
2023-03-08T18:37:06.844Z,54.44
2023-03-08T18:39:33.347Z,54.82
2023-03-08T18:42:01.231Z,53.95
2023-03-08T18:44:27.756Z,55.72
2023-03-08T18:46:54.289Z,55.77
2023-03-08T18:49:21.008Z,58.29
2023-03-08T18:51:47.576Z,58.14
2023-03-08T18:54:17.218Z,58.81
2023-03-08T18:56:44.367Z,59.54
2023-03-08T18:59:12.542Z,60.31
2023-03-08T19:01:39.081Z,60.88
2023-03-08T19:04:07.007Z,61.98
2023-03-08T19:06:34.397Z,61.27
2023-03-08T19:09:02.109Z,61.43
2023-03-08T19:11:28.880Z,62.54
2023-03-08T19:13:55.374Z,62.10
2023-03-08T19:16:21.841Z,62.22
2023-03-08T19:18:48.931Z,62.49
2023-03-08T19:21:23.202Z,62.94
2023-03-08T19:23:49.714Z,62.59
2023-03-08T19:26:36.953Z,62.71
2023-03-08T19:29:12.534Z,63.02
2023-03-08T19:31:41.492Z,63.67
2023-03-08T19:34:08.313Z,64.30
2023-03-08T19:36:37.923Z,65.66
2023-03-08T19:39:05.850Z,65.72
2023-03-08T19:41:33.723Z,65.74
2023-03-08T19:44:00.211Z,66.39
2023-03-08T19:46:26.870Z,68.00
2023-03-08T19:48:54.636Z,66.10
2023-03-08T19:51:21.162Z,64.88
2023-03-08T19:53:47.649Z,65.03
2023-03-08T19:56:15.710Z,64.18
2023-03-08T19:58:42.269Z,64.03
2023-03-08T20:01:09.660Z,58.92
2023-03-08T20:03:36.553Z,61.27
2023-03-08T20:06:03.761Z,62.80
2023-03-08T20:08:30.345Z,62.76
2023-03-08T20:10:57.189Z,63.97
2023-03-08T20:13:23.779Z,65.01
2023-03-08T20:15:50.254Z,65.85
2023-03-08T20:18:16.700Z,65.45
2023-03-08T20:20:44.652Z,65.48
2023-03-08T20:23:11.245Z,65.30
2023-03-08T20:25:38.177Z,65.12
2023-03-08T20:28:04.684Z,66.11
2023-03-08T20:30:31.243Z,65.42
2023-03-08T20:32:57.800Z,65.55
2023-03-08T20:35:24.266Z,65.16
2023-03-08T20:37:50.796Z,66.51
2023-03-08T20:40:18.035Z,66.81
2023-03-08T20:42:44.573Z,66.43
2023-03-08T20:45:11.276Z,66.79
2023-03-08T20:47:37.888Z,66.45
2023-03-08T20:50:04.858Z,66.88
2023-03-08T20:52:31.404Z,66.89
2023-03-08T20:54:57.873Z,68.07
2023-03-08T20:57:24.298Z,68.21
2023-03-08T20:59:50.810Z,65.29
2023-03-08T21:02:17.387Z,64.79
2023-03-08T21:04:43.918Z,63.07
2023-03-08T21:07:10.469Z,62.08
2023-03-08T21:09:36.916Z,62.24
2023-03-08T21:12:04.689Z,61.16
2023-03-08T21:14:31.245Z,59.02
2023-03-08T21:16:57.731Z,57.67
2023-03-08T21:19:24.200Z,56.39
2023-03-08T21:21:51.354Z,55.72
2023-03-08T21:24:19.270Z,55.01
2023-03-08T21:26:45.880Z,54.60
2023-03-08T21:29:13.600Z,55.44
2023-03-08T21:31:41.559Z,54.50
2023-03-08T21:34:08.528Z,54.33
2023-03-08T21:36:36.688Z,55.84
2023-03-08T21:39:03.605Z,56.80
2023-03-08T21:41:31.533Z,57.25
2023-03-08T21:43:58.352Z,57.39
2023-03-08T21:46:25.331Z,58.04
2023-03-08T21:48:51.894Z,58.03
2023-03-08T21:51:18.394Z,59.51
2023-03-08T21:53:44.863Z,60.22
2023-03-08T21:56:12.761Z,60.91
2023-03-08T21:58:39.275Z,60.44
2023-03-08T22:01:06.682Z,60.46
2023-03-08T22:03:34.708Z,60.74
2023-03-08T22:06:01.153Z,60.93
2023-03-08T22:08:27.799Z,58.99
2023-03-08T22:10:54.857Z,57.63
2023-03-08T22:13:21.593Z,56.46
2023-03-08T22:15:48.226Z,55.57
2023-03-08T22:18:14.804Z,54.24
2023-03-08T22:20:41.255Z,52.61
2023-03-08T22:23:07.759Z,52.09
2023-03-08T22:25:34.372Z,52.47
2023-03-08T22:28:00.838Z,51.73
2023-03-08T22:30:27.403Z,51.18
2023-03-08T22:32:54.612Z,50.83
2023-03-08T22:35:22.208Z,50.70
2023-03-08T22:37:48.981Z,51.45
2023-03-08T22:40:16.923Z,51.50
2023-03-08T22:42:43.409Z,50.86
2023-03-08T22:45:10.020Z,51.06
2023-03-08T22:47:36.436Z,51.03
2023-03-08T22:50:03.916Z,50.68
2023-03-08T22:52:30.477Z,50.43
2023-03-08T22:54:56.996Z,50.49
2023-03-08T22:57:23.745Z,49.83
2023-03-08T22:59:50.213Z,50.01
2023-03-08T23:02:16.656Z,49.47
2023-03-08T23:04:43.180Z,49.76
2023-03-08T23:07:09.747Z,49.96
2023-03-08T23:09:36.537Z,49.56
2023-03-08T23:12:04.873Z,50.58
2023-03-08T23:14:32.169Z,50.61
2023-03-08T23:16:58.943Z,50.57
2023-03-08T23:19:25.436Z,50.14
2023-03-08T23:21:51.902Z,50.19
2023-03-08T23:24:18.779Z,50.13
2023-03-08T23:26:46.195Z,49.88
2023-03-08T23:29:13.421Z,49.55
2023-03-08T23:31:43.994Z,49.07
2023-03-08T23:34:12.505Z,49.27
2023-03-08T23:36:38.970Z,48.97
2023-03-08T23:39:05.462Z,49.59
2023-03-08T23:41:32.375Z,49.41
2023-03-08T23:43:59.979Z,49.46
2023-03-08T23:46:26.926Z,49.19
2023-03-08T23:48:55.241Z,49.08
2023-03-08T23:51:22.639Z,49.93
2023-03-08T23:53:50.101Z,50.29
2023-03-08T23:56:19.811Z,49.88
2023-03-08T23:58:47.970Z,50.38
